createdAt,value
2022-11-24T00:00:11.924Z,99432.69
2022-11-24T00:01:20.033Z,99436.69
2022-11-24T00:02:22.530Z,99436.81
2022-11-24T00:03:24.954Z,99433.91
2022-11-24T00:04:27.251Z,99437.59
2022-11-24T00:05:29.721Z,99438.34
2022-11-24T00:06:34.348Z,99436.38
2022-11-24T00:07:37.200Z,99440.22
2022-11-24T00:08:41.287Z,99443.91
2022-11-24T00:09:43.866Z,99437.59
2022-11-24T00:10:46.155Z,99444.66
2022-11-24T00:11:48.797Z,99436.38
2022-11-24T00:12:51.122Z,99444.53
2022-11-24T00:13:54.461Z,99434.38
2022-11-24T00:14:56.997Z,99435.16
2022-11-24T00:16:11.199Z,99446.81
2022-11-24T00:17:13.678Z,99440.88
2022-11-24T00:18:15.932Z,99447.63
2022-11-24T00:19:19.959Z,99446.69
2022-11-24T00:20:22.398Z,99454.69
2022-11-24T00:21:26.239Z,99447.63
2022-11-24T00:22:28.547Z,99446.69
2022-11-24T00:23:31.356Z,99446.09
2022-11-24T00:24:34.051Z,99447.63
2022-11-24T00:25:36.838Z,99446.56
2022-11-24T00:26:39.781Z,99444.84
2022-11-24T00:27:42.161Z,99449.00
2022-11-24T00:28:46.755Z,99454.84
2022-11-24T00:29:49.224Z,99453.16
2022-11-24T00:30:51.587Z,99451.78
2022-11-24T00:31:54.184Z,99457.91
2022-11-24T00:32:56.468Z,99458.09
2022-11-24T00:34:01.455Z,99448.09
2022-11-24T00:35:03.882Z,99455.16
2022-11-24T00:36:06.424Z,99464.53
2022-11-24T00:37:08.750Z,99461.44
2022-11-24T00:38:11.245Z,99462.56
2022-11-24T00:39:15.515Z,99458.38
2022-11-24T00:40:17.732Z,99463.91
2022-11-24T00:41:20.333Z,99460.53
2022-11-24T00:42:22.633Z,99464.88
2022-11-24T00:43:25.245Z,99467.78
2022-11-24T00:44:27.547Z,99459.78
2022-11-24T00:45:30.140Z,99469.00
2022-11-24T00:46:32.976Z,99471.75
2022-11-24T00:47:35.729Z,99472.84
2022-11-24T00:48:39.404Z,99479.28
2022-11-24T00:49:41.831Z,99471.16
2022-11-24T00:50:44.262Z,99479.00
2022-11-24T00:51:46.769Z,99479.13
2022-11-24T00:52:49.219Z,99469.28
2022-11-24T00:53:51.538Z,99470.38
2022-11-24T00:54:54.019Z,99477.91
2022-11-24T00:55:57.098Z,99470.84
2022-11-24T00:56:59.847Z,99465.63
2022-11-24T00:58:02.888Z,99472.19
2022-11-24T00:59:05.291Z,99472.53
2022-11-24T01:00:08.550Z,99470.97
2022-11-24T01:01:14.917Z,99467.31
2022-11-24T01:02:19.811Z,99466.38
2022-11-24T01:03:22.964Z,99472.06
2022-11-24T01:04:25.581Z,99468.34
2022-11-24T01:05:27.914Z,99467.75
2022-11-24T01:06:32.852Z,99473.13
2022-11-24T01:07:36.130Z,99470.66
2022-11-24T01:08:39.909Z,99466.81
2022-11-24T01:09:43.428Z,99467.59
2022-11-24T01:10:45.710Z,99469.75
2022-11-24T01:12:03.148Z,99470.84
2022-11-24T01:13:05.659Z,99480.69
2022-11-24T01:14:07.927Z,99474.06
2022-11-24T01:15:10.493Z,99470.97
2022-11-24T01:16:29.907Z,99469.75
2022-11-24T01:17:32.188Z,99473.91
2022-11-24T01:18:34.599Z,99472.84
2022-11-24T01:19:36.845Z,99469.63
2022-11-24T01:20:39.369Z,99479.44
2022-11-24T01:21:41.837Z,99473.31
2022-11-24T01:22:44.273Z,99482.97
2022-11-24T01:23:46.880Z,99476.81
2022-11-24T01:24:49.256Z,99474.69
2022-11-24T01:25:51.508Z,99480.06
2022-11-24T01:26:53.966Z,99480.22
2022-11-24T01:27:56.396Z,99483.28
2022-11-24T01:28:59.315Z,99484.84
2022-11-24T01:30:01.934Z,99478.06
2022-11-24T01:31:07.218Z,99479.00
2022-11-24T01:32:09.540Z,99480.84
2022-11-24T01:33:12.102Z,99479.44
2022-11-24T01:34:15.375Z,99480.38
2022-11-24T01:35:17.864Z,99477.63
2022-11-24T01:36:21.275Z,99478.69
2022-11-24T01:37:23.736Z,99483.63
2022-11-24T01:38:28.200Z,99484.38
2022-11-24T01:39:30.739Z,99484.38
2022-11-24T01:40:33.005Z,99477.91
2022-11-24T01:41:35.916Z,99483.28
2022-11-24T01:42:49.406Z,99486.38
2022-11-24T01:43:53.774Z,99479.00
2022-11-24T01:45:29.912Z,99479.91
2022-11-24T01:46:47.703Z,99478.38
2022-11-24T01:47:50.366Z,99477.16
2022-11-24T01:49:00.343Z,99479.31
2022-11-24T01:50:05.092Z,99479.16
2022-11-24T01:51:24.513Z,99479.63
2022-11-24T01:52:36.387Z,99483.78
2022-11-24T01:53:42.202Z,99480.38
2022-11-24T01:54:55.441Z,99482.69
2022-11-24T01:55:58.459Z,99478.53
2022-11-24T01:57:23.803Z,99476.38
2022-11-24T01:58:29.504Z,99480.06
2022-11-24T01:59:33.380Z,99474.09
2022-11-24T02:00:38.603Z,99489.16
2022-11-24T02:01:41.552Z,99486.38
2022-11-24T02:02:45.188Z,99489.44
2022-11-24T02:03:49.245Z,99484.22
2022-11-24T02:04:52.261Z,99481.47
2022-11-24T02:05:59.515Z,99485.78
2022-11-24T02:07:06.144Z,99482.81
2022-11-24T02:08:17.698Z,99484.53
2022-11-24T02:09:31.407Z,99490.81
2022-11-24T02:10:33.619Z,99491.56
2022-11-24T02:11:38.761Z,99494.03
2022-11-24T02:12:47.486Z,99487.47
2022-11-24T02:13:51.871Z,99491.91
2022-11-24T02:14:55.222Z,99489.00
2022-11-24T02:15:57.848Z,99495.75
2022-11-24T02:17:00.364Z,99487.63
2022-11-24T02:18:03.340Z,99493.13
2022-11-24T02:19:13.474Z,99497.72
2022-11-24T02:20:17.381Z,99495.75
2022-11-24T02:21:27.295Z,99495.75
2022-11-24T02:22:39.578Z,99504.06
2022-11-24T02:23:50.892Z,99500.03
2022-11-24T02:25:11.927Z,99496.94
2022-11-24T02:26:33.077Z,99493.88
2022-11-24T02:27:36.021Z,99494.81
2022-11-24T02:28:39.497Z,99492.69
2022-11-24T02:29:42.157Z,99493.91
2022-11-24T02:30:44.913Z,99489.44
2022-11-24T02:31:55.388Z,99501.28
2022-11-24T02:32:57.817Z,99498.22
2022-11-24T02:34:00.115Z,99499.28
2022-11-24T02:35:05.051Z,99495.31
2022-11-24T02:36:07.872Z,99496.06
2022-11-24T02:37:10.233Z,99494.66
2022-11-24T02:38:14.269Z,99500.50
2022-11-24T02:39:17.012Z,99493.63
2022-11-24T02:40:25.679Z,99498.38
2022-11-24T02:41:29.288Z,99501.28
2022-11-24T02:42:37.522Z,99505.88
2022-11-24T02:43:47.443Z,99493.75
2022-11-24T02:44:53.715Z,99500.50
2022-11-24T02:45:55.930Z,99502.06
2022-11-24T02:47:12.740Z,99498.81
2022-11-24T02:48:16.231Z,99506.94
2022-11-24T02:49:20.795Z,99498.97
2022-11-24T02:50:23.133Z,99500.81
2022-11-24T02:51:25.801Z,99504.50
2022-11-24T02:52:28.307Z,99502.50
2022-11-24T02:53:30.624Z,99498.50
2022-11-24T02:54:33.525Z,99501.72
2022-11-24T02:55:36.131Z,99508.34
2022-11-24T02:56:38.407Z,99501.56
2022-11-24T02:57:40.738Z,99510.78
2022-11-24T02:58:43.127Z,99511.41
2022-11-24T02:59:46.865Z,99514.63
2022-11-24T03:00:49.920Z,99510.63
2022-11-24T03:01:53.067Z,99512.94
2022-11-24T03:02:58.682Z,99512.78
2022-11-24T03:04:01.190Z,99510.16
2022-11-24T03:05:03.855Z,99511.84
2022-11-24T03:06:06.334Z,99513.38
2022-11-24T03:07:08.722Z,99514.00
2022-11-24T03:08:11.377Z,99518.78
2022-11-24T03:09:13.733Z,99520.78
2022-11-24T03:10:16.690Z,99521.06
2022-11-24T03:11:19.002Z,99516.31
2022-11-24T03:12:21.521Z,99514.00
2022-11-24T03:13:24.112Z,99517.38
2022-11-24T03:14:26.759Z,99521.22
2022-11-24T03:15:28.960Z,99526.75
2022-11-24T03:16:31.765Z,99520.91
2022-11-24T03:17:34.198Z,99525.19
2022-11-24T03:18:36.857Z,99528.09
2022-11-24T03:20:02.989Z,99535.66
2022-11-24T03:21:07.384Z,99521.22
2022-11-24T03:22:09.755Z,99525.34
2022-11-24T03:23:12.222Z,99532.28
2022-11-24T03:24:14.726Z,99536.56
2022-11-24T03:25:17.079Z,99532.28
2022-11-24T03:26:21.868Z,99529.19
2022-11-24T03:27:24.182Z,99524.88
2022-11-24T03:28:26.470Z,99525.50
2022-11-24T03:29:28.847Z,99522.31
2022-11-24T03:30:31.101Z,99536.28
2022-11-24T03:31:33.515Z,99531.03
2022-11-24T03:32:44.743Z,99527.81
2022-11-24T03:33:47.091Z,99525.50
2022-11-24T03:34:49.367Z,99528.25
2022-11-24T03:35:51.629Z,99532.09
2022-11-24T03:36:54.405Z,99527.97
2022-11-24T03:37:56.739Z,99534.41
2022-11-24T03:38:58.990Z,99536.38
2022-11-24T03:40:01.674Z,99538.25
2022-11-24T03:41:11.200Z,99535.16
2022-11-24T03:42:13.675Z,99539.66
2022-11-24T03:43:15.988Z,99527.38
2022-11-24T03:44:18.597Z,99540.97
2022-11-24T03:46:43.340Z,99547.25
2022-11-24T03:47:45.651Z,99536.06
2022-11-24T03:48:47.999Z,99540.22
2022-11-24T03:49:50.225Z,99548.03
2022-11-24T03:51:00.498Z,99544.66
2022-11-24T03:52:07.851Z,99544.66
2022-11-24T03:53:10.923Z,99553.69
2022-11-24T03:54:13.191Z,99554.50
2022-11-24T03:55:18.810Z,99547.88
2022-11-24T03:56:26.738Z,99553.56
2022-11-24T03:57:29.528Z,99555.09
2022-11-24T03:58:31.926Z,99550.81
2022-11-24T03:59:40.281Z,99549.28
2022-11-24T04:00:42.796Z,99549.09
2022-11-24T04:01:45.640Z,99554.94
2022-11-24T04:02:48.625Z,99553.44
2022-11-24T04:03:50.866Z,99553.25
2022-11-24T04:04:53.195Z,99554.94
2022-11-24T04:05:55.500Z,99550.75
2022-11-24T04:06:57.817Z,99553.84
2022-11-24T04:08:05.466Z,99552.66
2022-11-24T04:09:08.287Z,99559.53
2022-11-24T04:10:10.792Z,99559.41
2022-11-24T04:11:33.846Z,99560.50
2022-11-24T04:12:45.077Z,99560.16
2022-11-24T04:13:47.799Z,99566.31
2022-11-24T04:14:49.963Z,99567.56
2022-11-24T04:15:52.681Z,99565.69
2022-11-24T04:16:55.039Z,99572.25
2022-11-24T04:18:08.663Z,99570.38
2022-11-24T04:19:11.047Z,99568.91
2022-11-24T04:20:13.775Z,99572.78
2022-11-24T04:21:16.203Z,99575.31
2022-11-24T04:22:18.502Z,99572.56
2022-11-24T04:23:20.830Z,99581.66
2022-11-24T04:24:23.530Z,99574.91
2022-11-24T04:25:26.181Z,99576.91
2022-11-24T04:26:28.995Z,99582.06
2022-11-24T04:27:35.724Z,99573.94
2022-11-24T04:28:38.771Z,99575.97
2022-11-24T04:29:41.251Z,99577.22
2022-11-24T04:30:45.226Z,99576.75
2022-11-24T04:31:47.680Z,99582.44
2022-11-24T04:32:50.176Z,99583.78
2022-11-24T04:33:52.607Z,99588.88
2022-11-24T04:34:54.916Z,99590.88
2022-11-24T04:35:57.321Z,99591.47
2022-11-24T04:36:59.530Z,99588.88
2022-11-24T04:38:04.552Z,99598.69
2022-11-24T04:39:19.417Z,99595.03
2022-11-24T04:40:27.968Z,99594.06
2022-11-24T04:41:30.369Z,99595.78
2022-11-24T04:42:32.591Z,99600.84
2022-11-24T04:43:40.243Z,99598.09
2022-11-24T04:44:43.186Z,99598.88
2022-11-24T04:45:45.546Z,99598.22
2022-11-24T04:46:48.429Z,99594.09
2022-11-24T04:47:50.985Z,99606.06
2022-11-24T04:48:53.279Z,99601.00
2022-11-24T04:49:55.971Z,99601.00
2022-11-24T04:50:58.541Z,99596.84
2022-11-24T04:52:00.862Z,99606.69
2022-11-24T04:53:04.251Z,99601.78
2022-11-24T04:54:11.519Z,99606.03
2022-11-24T04:55:13.743Z,99611.28
2022-11-24T04:56:16.150Z,99612.50
2022-11-24T04:57:26.566Z,99610.97
2022-11-24T04:58:28.832Z,99613.59
2022-11-24T04:59:31.361Z,99619.25
2022-11-24T05:00:33.631Z,99617.56
2022-11-24T05:01:36.323Z,99628.75
2022-11-24T05:02:38.874Z,99622.47
2022-11-24T05:03:49.665Z,99627.34
2022-11-24T05:04:52.500Z,99633.63
2022-11-24T05:05:54.834Z,99628.00
2022-11-24T05:06:57.131Z,99636.41
2022-11-24T05:08:02.861Z,99631.97
2022-11-24T05:09:06.283Z,99634.75
2022-11-24T05:10:27.543Z,99641.34
2022-11-24T05:11:29.998Z,99638.44
2022-11-24T05:12:32.570Z,99631.84
2022-11-24T05:13:35.349Z,99634.59
2022-11-24T05:14:37.602Z,99636.72
2022-11-24T05:15:41.324Z,99635.47
2022-11-24T05:16:43.664Z,99634.88
2022-11-24T05:17:45.890Z,99631.19
2022-11-24T05:18:48.279Z,99634.75
2022-11-24T05:19:50.533Z,99633.09
2022-11-24T05:20:52.838Z,99639.69
2022-11-24T05:21:54.969Z,99633.69
2022-11-24T05:23:03.043Z,99637.38
2022-11-24T05:24:05.585Z,99632.31
2022-11-24T05:25:08.097Z,99645.66
2022-11-24T05:26:10.403Z,99643.03
2022-11-24T05:27:12.848Z,99645.78
2022-11-24T05:28:15.411Z,99647.81
2022-11-24T05:29:17.747Z,99645.94
2022-11-24T05:30:20.244Z,99650.88
2022-11-24T05:31:22.614Z,99651.16
2022-11-24T05:32:24.875Z,99645.31
2022-11-24T05:33:28.819Z,99651.41
2022-11-24T05:34:33.593Z,99653.91
2022-11-24T05:35:36.633Z,99661.72
2022-11-24T05:36:54.540Z,99651.28
2022-11-24T05:37:58.723Z,99654.41
2022-11-24T05:39:00.798Z,99658.53
2022-11-24T05:40:04.377Z,99661.72
2022-11-24T05:41:06.673Z,99661.72
2022-11-24T05:42:27.872Z,99660.19
2022-11-24T05:43:30.318Z,99665.72
2022-11-24T05:44:32.850Z,99662.50
2022-11-24T05:45:35.197Z,99672.78
2022-11-24T05:46:38.056Z,99670.22
2022-11-24T05:47:42.143Z,99674.16
2022-11-24T05:48:44.807Z,99672.78
2022-11-24T05:49:47.262Z,99670.81
2022-11-24T05:50:57.628Z,99672.97
2022-11-24T05:51:59.877Z,99672.38
2022-11-24T05:53:06.556Z,99678.97
2022-11-24T05:54:09.100Z,99683.56
2022-11-24T05:55:12.291Z,99688.72
2022-11-24T05:56:14.735Z,99685.72
2022-11-24T05:57:18.080Z,99688.44
2022-11-24T05:58:22.309Z,99683.84
2022-11-24T05:59:24.563Z,99686.59
2022-11-24T06:00:28.178Z,99681.84
2022-11-24T06:01:30.482Z,99688.72
2022-11-24T06:02:33.016Z,99690.44
2022-11-24T06:03:35.333Z,99693.84
2022-11-24T06:04:37.713Z,99696.91
2022-11-24T06:05:40.226Z,99699.84
2022-11-24T06:06:43.069Z,99696.28
2022-11-24T06:07:45.589Z,99698.28
2022-11-24T06:08:47.890Z,99698.47
2022-11-24T06:09:50.890Z,99700.75
2022-11-24T06:10:53.263Z,99697.69
2022-11-24T06:12:05.051Z,99701.84
2022-11-24T06:13:08.939Z,99699.22
2022-11-24T06:14:11.744Z,99712.03
2022-11-24T06:15:14.387Z,99704.09
2022-11-24T06:16:16.712Z,99707.66
2022-11-24T06:17:19.165Z,99705.69
2022-11-24T06:18:21.528Z,99716.94
2022-11-24T06:19:23.836Z,99711.44
2022-11-24T06:20:32.326Z,99714.53
2022-11-24T06:21:34.988Z,99705.19
2022-11-24T06:22:37.388Z,99714.72
2022-11-24T06:23:40.309Z,99713.81
2022-11-24T06:24:42.566Z,99715.66
2022-11-24T06:25:48.718Z,99718.75
2022-11-24T06:26:53.636Z,99720.88
2022-11-24T06:27:56.561Z,99720.88
2022-11-24T06:28:59.526Z,99719.66
2022-11-24T06:30:01.868Z,99722.38
2022-11-24T06:31:05.628Z,99723.63
2022-11-24T06:32:08.379Z,99722.53
2022-11-24T06:33:10.717Z,99721.75
2022-11-24T06:34:13.357Z,99725.22
2022-11-24T06:35:15.726Z,99729.97
2022-11-24T06:36:18.085Z,99730.13
2022-11-24T06:37:20.488Z,99727.34
2022-11-24T06:38:24.474Z,99722.66
2022-11-24T06:39:26.993Z,99740.03
2022-11-24T06:40:29.256Z,99729.78
2022-11-24T06:41:31.614Z,99728.44
2022-11-24T06:42:33.916Z,99730.91
2022-11-24T06:43:36.529Z,99735.31
2022-11-24T06:44:41.375Z,99738.88
2022-11-24T06:45:43.696Z,99740.22
2022-11-24T06:46:45.892Z,99735.66
2022-11-24T06:47:48.197Z,99737.50
2022-11-24T06:48:53.748Z,99743.00
2022-11-24T06:49:56.343Z,99743.34
2022-11-24T06:51:00.520Z,99746.59
2022-11-24T06:52:02.781Z,99743.97
2022-11-24T06:53:05.426Z,99746.72
2022-11-24T06:54:10.336Z,99749.78
2022-11-24T06:55:12.788Z,99758.84
2022-11-24T06:56:18.708Z,99757.16
2022-11-24T06:57:21.443Z,99752.72
2022-11-24T06:58:23.687Z,99754.94
2022-11-24T06:59:26.760Z,99754.94
2022-11-24T07:00:32.348Z,99753.69
2022-11-24T07:01:35.657Z,99762.75
2022-11-24T07:02:44.164Z,99753.69
2022-11-24T07:03:54.473Z,99757.72
2022-11-24T07:04:56.802Z,99762.75
2022-11-24T07:05:59.569Z,99762.75
2022-11-24T07:07:03.344Z,99765.00
2022-11-24T07:08:05.927Z,99764.06
2022-11-24T07:09:10.090Z,99756.38
2022-11-24T07:10:12.526Z,99760.63
2022-11-24T07:11:19.386Z,99761.97
2022-11-24T07:12:22.110Z,99769.97
2022-11-24T07:13:24.771Z,99775.69
2022-11-24T07:14:27.308Z,99773.66
2022-11-24T07:15:30.470Z,99778.31
2022-11-24T07:16:34.417Z,99774.34
2022-11-24T07:17:39.339Z,99776.16
2022-11-24T07:18:43.336Z,99779.19
2022-11-24T07:19:50.368Z,99782.97
2022-11-24T07:20:54.891Z,99783.69
2022-11-24T07:21:57.859Z,99785.47
2022-11-24T07:23:01.435Z,99784.41
2022-11-24T07:24:04.512Z,99780.94
2022-11-24T07:25:10.019Z,99789.72
2022-11-24T07:26:12.776Z,99788.97
2022-11-24T07:27:15.200Z,99790.41
2022-11-24T07:28:17.514Z,99784.94
2022-11-24T07:29:20.581Z,99784.19
2022-11-24T07:30:24.503Z,99788.94
2022-11-24T07:31:26.904Z,99787.56
2022-11-24T07:32:29.788Z,99789.41
2022-11-24T07:33:32.015Z,99788.03
2022-11-24T07:34:35.700Z,99788.66
2022-11-24T07:35:38.300Z,99794.31
2022-11-24T07:36:41.480Z,99794.84
2022-11-24T07:37:44.453Z,99791.66
2022-11-24T07:38:47.831Z,99787.56
2022-11-24T07:39:50.268Z,99793.06
2022-11-24T07:40:52.575Z,99790.88
2022-11-24T07:41:54.839Z,99794.00
2022-11-24T07:43:01.536Z,99794.25
2022-11-24T07:44:08.077Z,99794.00
2022-11-24T07:45:11.033Z,99798.03
2022-11-24T07:46:17.652Z,99799.22
2022-11-24T07:47:21.504Z,99796.31
2022-11-24T07:48:25.671Z,99796.19
2022-11-24T07:49:28.194Z,99803.22
2022-11-24T07:50:30.621Z,99800.44
2022-11-24T07:51:32.960Z,99797.97
2022-11-24T07:52:36.348Z,99799.38
2022-11-24T07:53:42.130Z,99795.22
2022-11-24T07:54:44.385Z,99796.91
2022-11-24T07:55:58.266Z,99804.41
2022-11-24T07:57:01.317Z,99801.84
2022-11-24T07:58:03.646Z,99801.91
2022-11-24T07:59:06.345Z,99794.38
2022-11-24T08:00:09.820Z,99796.38
2022-11-24T08:01:17.644Z,99795.91
2022-11-24T08:02:20.182Z,99804.72
2022-11-24T08:03:23.179Z,99803.94
2022-11-24T08:04:25.787Z,99807.91
2022-11-24T08:05:28.051Z,99806.72
2022-11-24T08:06:38.470Z,99804.72
2022-11-24T08:07:42.011Z,99813.91
2022-11-24T08:08:44.845Z,99815.97
2022-11-24T08:09:47.180Z,99815.03
2022-11-24T08:10:49.705Z,99815.75
2022-11-24T08:11:52.521Z,99826.66
2022-11-24T08:12:54.755Z,99829.59
2022-11-24T08:13:57.444Z,99822.38
2022-11-24T08:14:59.621Z,99825.19
2022-11-24T08:16:11.090Z,99825.00
2022-11-24T08:17:13.802Z,99824.56
2022-11-24T08:18:16.600Z,99829.94
2022-11-24T08:19:18.865Z,99828.53
2022-11-24T08:20:21.505Z,99827.03
2022-11-24T08:21:24.394Z,99833.94
2022-11-24T08:22:26.796Z,99837.00
2022-11-24T08:23:29.569Z,99827.38
2022-11-24T08:24:32.194Z,99834.41
2022-11-24T08:25:34.795Z,99837.47
2022-11-24T08:26:37.105Z,99840.09
2022-11-24T08:27:52.109Z,99836.16
2022-11-24T08:28:56.987Z,99833.25
2022-11-24T08:29:59.330Z,99831.88
2022-11-24T08:31:04.256Z,99834.81
2022-11-24T08:32:17.400Z,99840.31
2022-11-24T08:33:23.661Z,99843.09
2022-11-24T08:34:27.412Z,99837.09
2022-11-24T08:35:29.732Z,99843.09
2022-11-24T08:36:33.060Z,99838.78
2022-11-24T08:37:35.388Z,99838.94
2022-11-24T08:38:38.512Z,99838.78
2022-11-24T08:39:40.963Z,99844.47
2022-11-24T08:40:43.262Z,99845.13
2022-11-24T08:41:46.025Z,99843.13
2022-11-24T08:42:48.335Z,99842.09
2022-11-24T08:43:51.254Z,99840.53
2022-11-24T08:44:58.825Z,99839.53
2022-11-24T08:46:13.253Z,99843.63
2022-11-24T08:47:15.761Z,99832.38
2022-11-24T08:48:18.045Z,99844.69
2022-11-24T08:49:24.893Z,99845.75
2022-11-24T08:50:31.599Z,99848.25
2022-11-24T08:51:34.017Z,99846.69
2022-11-24T08:52:36.576Z,99841.91
2022-11-24T08:53:39.666Z,99849.81
2022-11-24T08:54:44.500Z,99855.78
2022-11-24T08:55:46.807Z,99851.81
2022-11-24T08:56:49.961Z,99849.31
2022-11-24T08:57:52.269Z,99858.50
2022-11-24T08:58:56.286Z,99853.16
2022-11-24T08:59:58.737Z,99860.38
2022-11-24T09:01:15.191Z,99848.78
2022-11-24T09:02:17.763Z,99854.97
2022-11-24T09:03:20.342Z,99850.38
2022-11-24T09:04:22.751Z,99853.38
2022-11-24T09:05:50.545Z,99852.41
2022-11-24T09:06:48.084Z,99851.22
2022-11-24T09:07:50.812Z,99851.34
2022-11-24T09:08:56.863Z,99852.47
2022-11-24T09:09:59.212Z,99843.56
2022-11-24T09:11:05.940Z,99849.94
2022-11-24T09:12:14.299Z,99855.31
2022-11-24T09:13:17.220Z,99850.63
2022-11-24T09:14:19.597Z,99848.97
2022-11-24T09:15:23.047Z,99854.75
2022-11-24T09:16:28.017Z,99861.50
2022-11-24T09:17:30.836Z,99849.31
2022-11-24T09:18:34.205Z,99855.31
2022-11-24T09:19:36.980Z,99863.94
2022-11-24T09:21:58.812Z,99853.06
2022-11-24T09:23:01.112Z,99856.75
2022-11-24T09:24:04.004Z,99855.66
2022-11-24T09:25:06.952Z,99846.00
2022-11-24T09:26:14.679Z,99854.13
2022-11-24T09:27:16.934Z,99850.97
2022-11-24T09:28:19.277Z,99857.56
2022-11-24T09:29:21.579Z,99855.56
2022-11-24T09:30:23.885Z,99856.81
2022-11-24T09:31:29.343Z,99861.69
2022-11-24T09:32:32.293Z,99852.47
2022-11-24T09:33:35.785Z,99848.63
2022-11-24T09:34:37.989Z,99848.06
2022-11-24T09:35:40.298Z,99846.78
2022-11-24T09:36:43.446Z,99850.50
2022-11-24T09:37:46.040Z,99853.09
2022-11-24T09:38:49.374Z,99852.19
2022-11-24T09:39:51.738Z,99846.22
2022-11-24T09:40:57.283Z,99847.25
2022-11-24T09:42:08.657Z,99847.75
2022-11-24T09:43:19.573Z,99855.72
2022-11-24T09:44:36.921Z,99852.41
2022-11-24T09:46:05.042Z,99850.66
2022-11-24T09:47:29.399Z,99854.41
2022-11-24T09:48:46.141Z,99856.16
2022-11-24T09:49:56.224Z,99846.44
2022-11-24T09:51:02.128Z,99855.56
2022-11-24T09:52:11.382Z,99856.16
2022-11-24T09:53:26.030Z,99848.75
2022-11-24T09:54:30.776Z,99854.63
2022-11-24T09:55:49.820Z,99858.63
2022-11-24T09:56:52.768Z,99845.84
2022-11-24T09:58:03.654Z,99861.38
2022-11-24T09:59:16.770Z,99855.91
2022-11-24T10:00:19.209Z,99856.97
2022-11-24T10:01:26.580Z,99855.59
2022-11-24T10:02:29.038Z,99849.91
2022-11-24T10:03:39.272Z,99857.41
2022-11-24T10:04:46.954Z,99855.91
2022-11-24T10:05:51.534Z,99858.31
2022-11-24T10:07:05.806Z,99857.69
2022-11-24T10:08:17.405Z,99861.25
2022-11-24T10:09:33.311Z,99858.19
2022-11-24T10:10:51.044Z,99862.63
2022-11-24T10:12:05.285Z,99864.56
2022-11-24T10:13:33.070Z,99867.97
2022-11-24T10:15:00.259Z,99869.50
2022-11-24T10:16:27.416Z,99863.03
2022-11-24T10:18:00.502Z,99853.38
2022-11-24T10:19:41.210Z,99860.44
2022-11-24T10:21:06.111Z,99854.28
2022-11-24T10:22:27.082Z,99857.06
2022-11-24T10:23:41.460Z,99854.63
2022-11-24T10:25:04.457Z,99856.16
2022-11-24T10:26:25.506Z,99865.53
2022-11-24T10:27:40.110Z,99865.66
2022-11-24T10:28:49.141Z,99868.56
2022-11-24T10:29:53.123Z,99865.81
2022-11-24T10:31:13.654Z,99865.53
2022-11-24T10:32:31.108Z,99863.53
2022-11-24T10:33:33.951Z,99871.25
2022-11-24T10:34:40.193Z,99866.59
2022-11-24T10:36:13.506Z,99861.50
2022-11-24T10:37:43.484Z,99858.31
2022-11-24T10:38:59.007Z,99860.31
2022-11-24T10:40:49.207Z,99865.06
2022-11-24T10:41:51.380Z,99866.31
2022-11-24T10:42:54.971Z,99862.16
2022-11-24T10:43:59.033Z,99869.59
2022-11-24T10:45:13.189Z,99859.22
2022-11-24T10:46:24.324Z,99862.28
2022-11-24T10:47:31.776Z,99858.06
2022-11-24T10:48:43.592Z,99859.22
2022-11-24T10:50:27.579Z,99862.59
2022-11-24T10:51:44.074Z,99863.41
2022-11-24T10:53:20.683Z,99868.94
2022-11-24T10:54:24.476Z,99866.59
2022-11-24T10:55:26.901Z,99874.91
2022-11-24T10:56:39.554Z,99877.19
2022-11-24T10:57:43.980Z,99877.34
2022-11-24T10:58:46.354Z,99867.63
2022-11-24T10:59:48.803Z,99871.81
2022-11-24T11:00:51.436Z,99870.75
2022-11-24T11:01:54.394Z,99872.41
2022-11-24T11:03:27.484Z,99875.41
2022-11-24T11:04:32.442Z,99869.69
2022-11-24T11:05:43.313Z,99875.03
2022-11-24T11:06:45.873Z,99869.22
2022-11-24T11:07:48.351Z,99869.22
2022-11-24T11:09:17.931Z,99873.88
2022-11-24T11:10:23.454Z,99877.66
2022-11-24T11:11:29.938Z,99874.56
2022-11-24T11:12:47.629Z,99877.06
2022-11-24T11:13:56.898Z,99872.28
2022-11-24T11:15:30.751Z,99872.78
2022-11-24T11:16:46.359Z,99873.56
2022-11-24T11:17:50.637Z,99869.34
2022-11-24T11:18:53.224Z,99872.00
2022-11-24T11:20:04.380Z,99877.09
2022-11-24T11:21:07.227Z,99876.47
2022-11-24T11:22:12.229Z,99881.09
2022-11-24T11:23:21.362Z,99875.41
2022-11-24T11:24:24.446Z,99876.47
2022-11-24T11:25:33.466Z,99874.91
2022-11-24T11:26:38.591Z,99875.03
2022-11-24T11:27:41.918Z,99875.69
2022-11-24T11:35:00.320Z,99878.69
2022-11-24T11:36:11.217Z,99880.50
2022-11-24T11:37:15.832Z,99878.22
2022-11-24T11:38:19.639Z,99880.06
2022-11-24T11:39:24.201Z,99878.69
2022-11-24T11:40:29.483Z,99879.63
2022-11-24T11:41:36.348Z,99881.31
2022-11-24T11:43:01.847Z,99886.16
2022-11-24T11:44:17.989Z,99887.41
2022-11-24T11:45:24.329Z,99890.13
2022-11-24T11:46:31.136Z,99889.28
2022-11-24T11:47:42.535Z,99879.56
2022-11-24T11:48:47.192Z,99884.78
2022-11-24T11:49:50.051Z,99889.66
2022-11-24T11:52:59.221Z,99887.88
2022-11-24T11:54:20.127Z,99887.34
2022-11-24T11:55:31.121Z,99890.13
2022-11-24T11:56:40.545Z,99883.19
2022-11-24T11:57:50.644Z,99882.28
2022-11-24T11:59:26.543Z,99885.06
2022-11-24T12:00:32.160Z,99886.94
2022-11-24T12:01:47.285Z,99883.94
2022-11-24T12:03:14.038Z,99883.91
2022-11-24T12:04:20.603Z,99891.50
2022-11-24T12:05:41.353Z,99894.38
2022-11-24T12:07:23.566Z,99895.16
2022-11-24T12:09:03.149Z,99886.72
2022-11-24T12:10:12.582Z,99893.03
2022-11-24T12:11:36.987Z,99890.66
2022-11-24T12:12:48.410Z,99894.56
2022-11-24T12:14:26.870Z,99897.75
2022-11-24T12:15:48.544Z,99892.44
2022-11-24T12:17:07.929Z,99891.16
2022-11-24T12:20:18.016Z,99901.19
2022-11-24T12:21:36.206Z,99894.56
2022-11-24T12:23:00.080Z,99899.19
2022-11-24T12:24:30.694Z,99902.06
2022-11-24T12:25:40.943Z,99899.63
2022-11-24T12:26:59.628Z,99899.44
2022-11-24T12:28:20.258Z,99902.97
2022-11-24T12:29:40.307Z,99898.66
2022-11-24T12:30:45.638Z,99907.16
2022-11-24T12:31:58.273Z,99904.22
2022-11-24T12:33:28.779Z,99903.88
2022-11-24T12:35:00.260Z,99902.06
2022-11-24T12:36:30.558Z,99908.13
2022-11-24T12:38:11.870Z,99909.56
2022-11-24T12:39:31.552Z,99914.81
2022-11-24T12:40:47.130Z,99922.84
2022-11-24T12:41:58.619Z,99921.09
2022-11-24T12:43:00.959Z,99914.69
2022-11-24T12:44:09.615Z,99918.09
2022-11-24T12:45:17.522Z,99913.16
2022-11-24T12:46:38.692Z,99922.84
2022-11-24T12:48:19.728Z,99923.03
2022-11-24T12:50:16.033Z,99923.13
2022-11-24T12:51:31.483Z,99923.13
2022-11-24T12:52:46.451Z,99925.94
2022-11-24T12:53:51.053Z,99926.72
2022-11-24T12:54:54.975Z,99935.81
2022-11-24T12:56:13.605Z,99933.88
2022-11-24T12:57:26.559Z,99936.31
2022-11-24T12:59:03.672Z,99939.28
2022-11-24T13:00:21.385Z,99937.47
2022-11-24T13:02:05.895Z,99938.16
2022-11-24T13:03:50.094Z,99938.31
2022-11-24T13:05:03.904Z,99939.28
2022-11-24T13:06:49.264Z,99941.03
2022-11-24T13:07:58.645Z,99939.63
2022-11-24T13:09:08.410Z,99941.47
2022-11-24T13:10:53.709Z,99942.41
2022-11-24T13:11:51.549Z,99951.00
2022-11-24T13:12:59.740Z,99956.34
2022-11-24T13:14:28.857Z,99947.63
2022-11-24T13:15:45.761Z,99942.09
2022-11-24T13:18:47.229Z,99950.53
2022-11-24T13:19:49.955Z,99949.44